sensor_id;sensor_type;location;lat;lon;timestamp;P1;durP1;ratioP1;P2;durP2;ratioP2
12112;SDS011;6120;52.250;8.478;2023-07-13T00:01:48;2.45;;;2.25;;
12112;SDS011;6120;52.250;8.478;2023-07-13T00:04:17;2.40;;;2.20;;
12112;SDS011;6120;52.250;8.478;2023-07-13T00:06:45;2.17;;;2.05;;
12112;SDS011;6120;52.250;8.478;2023-07-13T00:09:15;2.40;;;2.20;;
12112;SDS011;6120;52.250;8.478;2023-07-13T00:11:43;2.10;;;1.98;;
12112;SDS011;6120;52.250;8.478;2023-07-13T00:14:10;2.20;;;2.10;;
12112;SDS011;6120;52.250;8.478;2023-07-13T00:16:38;2.22;;;2.03;;
12112;SDS011;6120;52.250;8.478;2023-07-13T00:19:06;2.30;;;2.10;;
12112;SDS011;6120;52.250;8.478;2023-07-13T00:21:33;2.20;;;2.00;;
12112;SDS011;6120;52.250;8.478;2023-07-13T00:24:01;2.45;;;2.25;;
12112;SDS011;6120;52.250;8.478;2023-07-13T00:26:28;2.42;;;2.22;;
12112;SDS011;6120;52.250;8.478;2023-07-13T00:28:54;2.20;;;2.00;;
12112;SDS011;6120;52.250;8.478;2023-07-13T00:31:21;2.30;;;2.10;;
12112;SDS011;6120;52.250;8.478;2023-07-13T00:33:48;2.38;;;2.17;;
12112;SDS011;6120;52.250;8.478;2023-07-13T00:36:15;2.00;;;1.90;;
12112;SDS011;6120;52.250;8.478;2023-07-13T00:38:42;2.20;;;2.00;;
12112;SDS011;6120;52.250;8.478;2023-07-13T00:41:09;2.35;;;2.00;;
12112;SDS011;6120;52.250;8.478;2023-07-13T00:43:36;2.22;;;2.03;;
12112;SDS011;6120;52.250;8.478;2023-07-13T00:46:11;2.00;;;1.90;;
12112;SDS011;6120;52.250;8.478;2023-07-13T00:48:49;2.40;;;2.20;;
12112;SDS011;6120;52.250;8.478;2023-07-13T00:51:18;2.20;;;2.00;;
12112;SDS011;6120;52.250;8.478;2023-07-13T00:53:47;2.20;;;2.00;;
12112;SDS011;6120;52.250;8.478;2023-07-13T00:56:14;2.80;;;2.33;;
12112;SDS011;6120;52.250;8.478;2023-07-13T00:58:41;2.30;;;2.10;;
12112;SDS011;6120;52.250;8.478;2023-07-13T01:01:07;2.47;;;1.90;;
12112;SDS011;6120;52.250;8.478;2023-07-13T01:03:34;2.22;;;2.03;;
12112;SDS011;6120;52.250;8.478;2023-07-13T01:06:01;2.30;;;2.10;;
12112;SDS011;6120;52.250;8.478;2023-07-13T01:08:28;2.60;;;2.40;;
12112;SDS011;6120;52.250;8.478;2023-07-13T01:10:56;2.30;;;2.10;;
12112;SDS011;6120;52.250;8.478;2023-07-13T01:13:24;2.25;;;2.05;;
12112;SDS011;6120;52.250;8.478;2023-07-13T01:15:51;2.38;;;2.13;;
12112;SDS011;6120;52.250;8.478;2023-07-13T01:18:23;2.10;;;1.90;;
12112;SDS011;6120;52.250;8.478;2023-07-13T01:23:22;2.25;;;2.05;;
12112;SDS011;6120;52.250;8.478;2023-07-13T01:25:50;3.63;;;2.40;;
12112;SDS011;6120;52.250;8.478;2023-07-13T01:28:18;2.60;;;2.20;;
12112;SDS011;6120;52.250;8.478;2023-07-13T01:30:45;2.28;;;2.08;;
12112;SDS011;6120;52.250;8.478;2023-07-13T01:33:13;2.50;;;2.30;;
12112;SDS011;6120;52.250;8.478;2023-07-13T01:35:40;2.88;;;2.50;;
12112;SDS011;6120;52.250;8.478;2023-07-13T01:38:07;2.70;;;2.40;;
12112;SDS011;6120;52.250;8.478;2023-07-13T01:40:35;2.13;;;1.97;;
12112;SDS011;6120;52.250;8.478;2023-07-13T01:43:02;2.50;;;2.13;;
12112;SDS011;6120;52.250;8.478;2023-07-13T01:45:29;2.30;;;2.10;;
12112;SDS011;6120;52.250;8.478;2023-07-13T01:47:56;2.38;;;2.17;;
12112;SDS011;6120;52.250;8.478;2023-07-13T01:50:24;2.30;;;2.05;;
12112;SDS011;6120;52.250;8.478;2023-07-13T01:52:52;2.70;;;2.50;;
12112;SDS011;6120;52.250;8.478;2023-07-13T01:55:19;2.47;;;2.28;;
12112;SDS011;6120;52.250;8.478;2023-07-13T01:57:46;2.45;;;2.25;;
12112;SDS011;6120;52.250;8.478;2023-07-13T02:00:13;2.92;;;2.63;;
12112;SDS011;6120;52.250;8.478;2023-07-13T02:02:40;2.30;;;1.92;;
12112;SDS011;6120;52.250;8.478;2023-07-13T02:05:11;2.50;;;2.30;;
12112;SDS011;6120;52.250;8.478;2023-07-13T02:07:39;2.70;;;2.50;;
12112;SDS011;6120;52.250;8.478;2023-07-13T02:10:06;2.50;;;2.30;;
12112;SDS011;6120;52.250;8.478;2023-07-13T02:12:34;2.20;;;2.00;;
12112;SDS011;6120;52.250;8.478;2023-07-13T02:15:01;2.40;;;2.20;;
12112;SDS011;6120;52.250;8.478;2023-07-13T02:17:28;2.27;;;2.07;;
12112;SDS011;6120;52.250;8.478;2023-07-13T02:19:55;2.33;;;2.13;;
12112;SDS011;6120;52.250;8.478;2023-07-13T02:22:22;2.47;;;2.28;;
12112;SDS011;6120;52.250;8.478;2023-07-13T02:24:49;2.50;;;2.30;;
12112;SDS011;6120;52.250;8.478;2023-07-13T02:27:16;2.40;;;2.20;;
12112;SDS011;6120;52.250;8.478;2023-07-13T02:29:43;2.78;;;2.42;;
12112;SDS011;6120;52.250;8.478;2023-07-13T02:32:09;2.65;;;2.45;;
12112;SDS011;6120;52.250;8.478;2023-07-13T02:34:36;2.92;;;2.38;;
12112;SDS011;6120;52.250;8.478;2023-07-13T02:37:03;3.22;;;2.58;;
12112;SDS011;6120;52.250;8.478;2023-07-13T02:39:30;3.17;;;2.33;;
12112;SDS011;6120;52.250;8.478;2023-07-13T02:41:59;3.03;;;2.45;;
12112;SDS011;6120;52.250;8.478;2023-07-13T02:44:26;3.42;;;2.70;;
12112;SDS011;6120;52.250;8.478;2023-07-13T02:46:53;2.67;;;2.47;;
12112;SDS011;6120;52.250;8.478;2023-07-13T02:49:20;3.58;;;2.67;;
12112;SDS011;6120;52.250;8.478;2023-07-13T02:51:46;3.05;;;2.72;;
12112;SDS011;6120;52.250;8.478;2023-07-13T02:54:13;2.55;;;2.35;;
12112;SDS011;6120;52.250;8.478;2023-07-13T02:56:40;2.92;;;2.47;;
12112;SDS011;6120;52.250;8.478;2023-07-13T02:59:07;2.80;;;2.60;;
12112;SDS011;6120;52.250;8.478;2023-07-13T03:01:33;2.72;;;2.47;;
12112;SDS011;6120;52.250;8.478;2023-07-13T03:04:02;2.47;;;2.25;;
12112;SDS011;6120;52.250;8.478;2023-07-13T03:06:30;2.92;;;2.60;;
12112;SDS011;6120;52.250;8.478;2023-07-13T03:08:57;2.83;;;2.55;;
12112;SDS011;6120;52.250;8.478;2023-07-13T03:11:24;2.63;;;2.30;;
12112;SDS011;6120;52.250;8.478;2023-07-13T03:13:51;2.65;;;2.40;;
12112;SDS011;6120;52.250;8.478;2023-07-13T03:16:18;2.80;;;2.55;;
12112;SDS011;6120;52.250;8.478;2023-07-13T03:18:45;2.40;;;2.20;;
12112;SDS011;6120;52.250;8.478;2023-07-13T03:21:13;3.20;;;2.35;;
12112;SDS011;6120;52.250;8.478;2023-07-13T03:23:40;4.00;;;2.65;;
12112;SDS011;6120;52.250;8.478;2023-07-13T03:26:08;2.80;;;2.38;;
12112;SDS011;6120;52.250;8.478;2023-07-13T03:28:36;2.92;;;2.63;;
12112;SDS011;6120;52.250;8.478;2023-07-13T03:31:03;2.47;;;2.28;;
12112;SDS011;6120;52.250;8.478;2023-07-13T03:33:32;4.95;;;2.78;;
12112;SDS011;6120;52.250;8.478;2023-07-13T03:35:59;3.53;;;2.80;;
12112;SDS011;6120;52.250;8.478;2023-07-13T03:38:26;2.70;;;2.50;;
12112;SDS011;6120;52.250;8.478;2023-07-13T03:40:53;3.92;;;2.78;;
12112;SDS011;6120;52.250;8.478;2023-07-13T03:43:20;3.15;;;2.60;;
12112;SDS011;6120;52.250;8.478;2023-07-13T03:45:46;2.60;;;2.33;;
12112;SDS011;6120;52.250;8.478;2023-07-13T03:48:13;2.88;;;2.50;;
12112;SDS011;6120;52.250;8.478;2023-07-13T03:50:40;2.97;;;2.60;;
12112;SDS011;6120;52.250;8.478;2023-07-13T03:53:07;3.50;;;2.50;;
12112;SDS011;6120;52.250;8.478;2023-07-13T03:55:34;3.88;;;2.78;;
12112;SDS011;6120;52.250;8.478;2023-07-13T03:58:23;3.22;;;2.35;;
12112;SDS011;6120;52.250;8.478;2023-07-13T04:00:50;2.97;;;2.60;;
12112;SDS011;6120;52.250;8.478;2023-07-13T04:03:17;2.90;;;2.40;;
12112;SDS011;6120;52.250;8.478;2023-07-13T04:05:43;3.05;;;2.75;;
12112;SDS011;6120;52.250;8.478;2023-07-13T04:08:10;3.55;;;2.50;;
12112;SDS011;6120;52.250;8.478;2023-07-13T04:10:36;2.88;;;2.58;;
12112;SDS011;6120;52.250;8.478;2023-07-13T04:13:05;3.67;;;2.80;;
12112;SDS011;6120;52.250;8.478;2023-07-13T04:15:32;3.20;;;2.42;;
12112;SDS011;6120;52.250;8.478;2023-07-13T04:17:59;4.53;;;2.75;;
12112;SDS011;6120;52.250;8.478;2023-07-13T04:20:26;3.33;;;2.63;;
12112;SDS011;6120;52.250;8.478;2023-07-13T04:22:52;5.13;;;3.10;;
12112;SDS011;6120;52.250;8.478;2023-07-13T04:25:20;3.30;;;2.70;;
12112;SDS011;6120;52.250;8.478;2023-07-13T04:27:47;3.15;;;2.30;;
12112;SDS011;6120;52.250;8.478;2023-07-13T04:30:15;4.00;;;2.70;;
12112;SDS011;6120;52.250;8.478;2023-07-13T04:32:42;2.95;;;2.50;;
12112;SDS011;6120;52.250;8.478;2023-07-13T04:35:09;3.63;;;2.53;;
12112;SDS011;6120;52.250;8.478;2023-07-13T04:37:35;3.05;;;2.38;;
12112;SDS011;6120;52.250;8.478;2023-07-13T04:40:02;3.30;;;3.00;;
12112;SDS011;6120;52.250;8.478;2023-07-13T04:42:29;3.90;;;2.87;;
12112;SDS011;6120;52.250;8.478;2023-07-13T04:44:56;3.00;;;2.70;;
12112;SDS011;6120;52.250;8.478;2023-07-13T04:47:23;2.65;;;2.45;;
12112;SDS011;6120;52.250;8.478;2023-07-13T04:49:50;3.40;;;2.40;;
12112;SDS011;6120;52.250;8.478;2023-07-13T04:52:17;2.60;;;2.40;;
12112;SDS011;6120;52.250;8.478;2023-07-13T04:54:43;3.95;;;2.38;;
12112;SDS011;6120;52.250;8.478;2023-07-13T04:57:10;3.20;;;2.70;;
12112;SDS011;6120;52.250;8.478;2023-07-13T04:59:36;3.45;;;2.88;;
12112;SDS011;6120;52.250;8.478;2023-07-13T05:02:03;3.53;;;2.80;;
12112;SDS011;6120;52.250;8.478;2023-07-13T05:04:31;3.45;;;2.22;;
12112;SDS011;6120;52.250;8.478;2023-07-13T05:06:58;2.67;;;2.47;;
12112;SDS011;6120;52.250;8.478;2023-07-13T05:09:25;3.20;;;2.80;;
12112;SDS011;6120;52.250;8.478;2023-07-13T05:11:52;2.88;;;2.60;;
12112;SDS011;6120;52.250;8.478;2023-07-13T05:14:18;2.60;;;2.40;;
12112;SDS011;6120;52.250;8.478;2023-07-13T05:16:45;2.85;;;2.40;;
12112;SDS011;6120;52.250;8.478;2023-07-13T05:19:12;2.75;;;2.47;;
12112;SDS011;6120;52.250;8.478;2023-07-13T05:21:38;3.80;;;2.63;;
12112;SDS011;6120;52.250;8.478;2023-07-13T05:24:05;2.85;;;2.55;;
12112;SDS011;6120;52.250;8.478;2023-07-13T05:26:50;3.30;;;2.72;;
12112;SDS011;6120;52.250;8.478;2023-07-13T05:29:16;2.80;;;2.60;;
12112;SDS011;6120;52.250;8.478;2023-07-13T05:31:43;3.13;;;2.70;;
12112;SDS011;6120;52.250;8.478;2023-07-13T05:34:09;3.70;;;2.63;;
12112;SDS011;6120;52.250;8.478;2023-07-13T05:36:36;3.53;;;2.65;;
12112;SDS011;6120;52.250;8.478;2023-07-13T05:39:03;3.28;;;2.50;;
12112;SDS011;6120;52.250;8.478;2023-07-13T05:41:30;3.53;;;2.72;;
12112;SDS011;6120;52.250;8.478;2023-07-13T05:43:57;2.95;;;2.65;;
12112;SDS011;6120;52.250;8.478;2023-07-13T05:46:24;5.63;;;2.70;;
12112;SDS011;6120;52.250;8.478;2023-07-13T05:48:51;3.15;;;2.50;;
12112;SDS011;6120;52.250;8.478;2023-07-13T05:51:17;4.85;;;3.20;;
12112;SDS011;6120;52.250;8.478;2023-07-13T05:53:44;2.70;;;2.40;;
12112;SDS011;6120;52.250;8.478;2023-07-13T05:56:11;4.03;;;2.80;;
12112;SDS011;6120;52.250;8.478;2023-07-13T05:58:37;2.63;;;2.42;;
12112;SDS011;6120;52.250;8.478;2023-07-13T06:01:05;3.55;;;2.75;;
12112;SDS011;6120;52.250;8.478;2023-07-13T06:03:33;3.53;;;2.67;;
12112;SDS011;6120;52.250;8.478;2023-07-13T06:06:00;4.88;;;2.63;;
12112;SDS011;6120;52.250;8.478;2023-07-13T06:08:27;4.70;;;2.20;;
12112;SDS011;6120;52.250;8.478;2023-07-13T06:10:54;3.92;;;2.45;;
12112;SDS011;6120;52.250;8.478;2023-07-13T06:13:20;2.58;;;2.30;;
12112;SDS011;6120;52.250;8.478;2023-07-13T06:15:48;3.13;;;2.33;;
12112;SDS011;6120;52.250;8.478;2023-07-13T06:18:15;2.85;;;2.55;;
12112;SDS011;6120;52.250;8.478;2023-07-13T06:20:42;3.55;;;2.60;;
12112;SDS011;6120;52.250;8.478;2023-07-13T06:23:09;2.78;;;2.22;;
12112;SDS011;6120;52.250;8.478;2023-07-13T06:25:35;3.67;;;2.42;;
12112;SDS011;6120;52.250;8.478;2023-07-13T06:28:02;5.93;;;2.47;;
12112;SDS011;6120;52.250;8.478;2023-07-13T06:30:29;3.45;;;2.45;;
12112;SDS011;6120;52.250;8.478;2023-07-13T06:32:55;4.10;;;2.47;;
12112;SDS011;6120;52.250;8.478;2023-07-13T06:35:22;3.33;;;2.67;;
12112;SDS011;6120;52.250;8.478;2023-07-13T06:37:49;3.05;;;2.38;;
12112;SDS011;6120;52.250;8.478;2023-07-13T06:40:15;3.10;;;2.40;;
12112;SDS011;6120;52.250;8.478;2023-07-13T06:42:42;4.68;;;2.70;;
12112;SDS011;6120;52.250;8.478;2023-07-13T06:45:09;3.20;;;2.40;;
12112;SDS011;6120;52.250;8.478;2023-07-13T06:47:35;3.85;;;2.60;;
12112;SDS011;6120;52.250;8.478;2023-07-13T06:50:02;4.05;;;2.70;;
12112;SDS011;6120;52.250;8.478;2023-07-13T06:52:29;3.60;;;2.45;;
12112;SDS011;6120;52.250;8.478;2023-07-13T06:54:56;4.47;;;3.00;;
12112;SDS011;6120;52.250;8.478;2023-07-13T06:57:22;3.83;;;2.90;;
12112;SDS011;6120;52.250;8.478;2023-07-13T06:59:49;5.32;;;2.70;;
12112;SDS011;6120;52.250;8.478;2023-07-13T07:02:15;4.13;;;3.10;;
12112;SDS011;6120;52.250;8.478;2023-07-13T07:04:42;3.35;;;2.50;;
12112;SDS011;6120;52.250;8.478;2023-07-13T07:07:09;3.85;;;2.92;;
12112;SDS011;6120;52.250;8.478;2023-07-13T07:09:35;7.07;;;3.28;;
12112;SDS011;6120;52.250;8.478;2023-07-13T07:12:02;4.82;;;3.17;;
12112;SDS011;6120;52.250;8.478;2023-07-13T07:14:30;3.87;;;2.80;;
12112;SDS011;6120;52.250;8.478;2023-07-13T07:16:57;3.10;;;2.70;;
12112;SDS011;6120;52.250;8.478;2023-07-13T07:19:25;4.47;;;2.88;;
12112;SDS011;6120;52.250;8.478;2023-07-13T07:21:53;4.10;;;2.97;;
12112;SDS011;6120;52.250;8.478;2023-07-13T07:24:20;4.22;;;3.03;;
12112;SDS011;6120;52.250;8.478;2023-07-13T07:26:47;3.47;;;2.55;;
12112;SDS011;6120;52.250;8.478;2023-07-13T07:29:16;3.35;;;2.53;;
12112;SDS011;6120;52.250;8.478;2023-07-13T07:31:46;3.63;;;2.67;;
12112;SDS011;6120;52.250;8.478;2023-07-13T07:34:28;3.90;;;2.80;;
12112;SDS011;6120;52.250;8.478;2023-07-13T07:36:58;3.22;;;2.47;;
12112;SDS011;6120;52.250;8.478;2023-07-13T07:39:28;3.35;;;2.30;;
12112;SDS011;6120;52.250;8.478;2023-07-13T07:41:55;3.53;;;2.40;;
12112;SDS011;6120;52.250;8.478;2023-07-13T07:44:22;3.95;;;2.75;;
12112;SDS011;6120;52.250;8.478;2023-07-13T07:46:49;4.13;;;2.60;;
12112;SDS011;6120;52.250;8.478;2023-07-13T07:49:16;4.07;;;2.80;;
12112;SDS011;6120;52.250;8.478;2023-07-13T07:51:43;3.38;;;2.53;;
12112;SDS011;6120;52.250;8.478;2023-07-13T07:54:09;2.50;;;2.25;;
12112;SDS011;6120;52.250;8.478;2023-07-13T07:56:40;4.00;;;2.70;;
12112;SDS011;6120;52.250;8.478;2023-07-13T07:59:09;3.38;;;2.67;;
12112;SDS011;6120;52.250;8.478;2023-07-13T08:01:39;3.28;;;2.28;;
12112;SDS011;6120;52.250;8.478;2023-07-13T08:04:08;3.33;;;2.60;;
12112;SDS011;6120;52.250;8.478;2023-07-13T08:06:55;2.83;;;2.30;;
12112;SDS011;6120;52.250;8.478;2023-07-13T08:09:23;4.03;;;2.58;;
12112;SDS011;6120;52.250;8.478;2023-07-13T08:11:50;4.25;;;2.65;;
12112;SDS011;6120;52.250;8.478;2023-07-13T08:14:21;3.60;;;2.90;;
12112;SDS011;6120;52.250;8.478;2023-07-13T08:16:47;3.78;;;2.72;;
12112;SDS011;6120;52.250;8.478;2023-07-13T08:19:14;3.42;;;2.88;;
12112;SDS011;6120;52.250;8.478;2023-07-13T08:21:41;2.38;;;2.15;;
12112;SDS011;6120;52.250;8.478;2023-07-13T08:24:09;3.28;;;2.30;;
12112;SDS011;6120;52.250;8.478;2023-07-13T08:26:36;2.50;;;2.03;;
12112;SDS011;6120;52.250;8.478;2023-07-13T08:29:03;3.60;;;2.30;;
12112;SDS011;6120;52.250;8.478;2023-07-13T08:31:29;2.17;;;1.98;;
12112;SDS011;6120;52.250;8.478;2023-07-13T08:33:56;2.83;;;2.13;;
12112;SDS011;6120;52.250;8.478;2023-07-13T08:36:23;2.97;;;2.50;;
12112;SDS011;6120;52.250;8.478;2023-07-13T08:38:49;3.20;;;2.40;;
12112;SDS011;6120;52.250;8.478;2023-07-13T08:41:17;2.65;;;2.25;;
12112;SDS011;6120;52.250;8.478;2023-07-13T08:43:45;2.87;;;2.00;;
12112;SDS011;6120;52.250;8.478;2023-07-13T08:46:20;4.63;;;2.72;;
12112;SDS011;6120;52.250;8.478;2023-07-13T08:48:54;3.78;;;2.42;;
12112;SDS011;6120;52.250;8.478;2023-07-13T08:51:37;2.35;;;2.15;;
12112;SDS011;6120;52.250;8.478;2023-07-13T08:54:16;3.03;;;2.10;;
12112;SDS011;6120;52.250;8.478;2023-07-13T08:56:46;2.90;;;2.22;;
12112;SDS011;6120;52.250;8.478;2023-07-13T08:59:16;2.35;;;2.15;;
12112;SDS011;6120;52.250;8.478;2023-07-13T09:04:37;3.13;;;2.15;;
12112;SDS011;6120;52.250;8.478;2023-07-13T09:12:30;2.45;;;1.95;;
12112;SDS011;6120;52.250;8.478;2023-07-13T09:15:02;3.53;;;2.20;;
12112;SDS011;6120;52.250;8.478;2023-07-13T09:17:35;2.83;;;2.00;;
12112;SDS011;6120;52.250;8.478;2023-07-13T09:22:59;2.40;;;1.90;;
12112;SDS011;6120;52.250;8.478;2023-07-13T09:25:31;2.22;;;1.90;;
12112;SDS011;6120;52.250;8.478;2023-07-13T09:28:10;1.75;;;1.58;;
12112;SDS011;6120;52.250;8.478;2023-07-13T09:33:14;3.15;;;2.20;;
12112;SDS011;6120;52.250;8.478;2023-07-13T09:35:41;2.30;;;1.97;;
12112;SDS011;6120;52.250;8.478;2023-07-13T09:43:15;2.72;;;2.10;;
12112;SDS011;6120;52.250;8.478;2023-07-13T09:45:42;2.03;;;1.83;;
12112;SDS011;6120;52.250;8.478;2023-07-13T09:48:12;2.80;;;1.88;;
12112;SDS011;6120;52.250;8.478;2023-07-13T09:53:18;3.50;;;2.10;;
12112;SDS011;6120;52.250;8.478;2023-07-13T09:55:46;2.03;;;1.70;;
12112;SDS011;6120;52.250;8.478;2023-07-13T09:58:19;2.38;;;2.17;;
12112;SDS011;6120;52.250;8.478;2023-07-13T10:00:56;2.45;;;1.70;;
12112;SDS011;6120;52.250;8.478;2023-07-13T10:03:28;4.35;;;1.70;;
12112;SDS011;6120;52.250;8.478;2023-07-13T10:06:13;2.38;;;2.00;;
12112;SDS011;6120;52.250;8.478;2023-07-13T10:08:44;2.83;;;2.00;;
12112;SDS011;6120;52.250;8.478;2023-07-13T10:11:23;2.13;;;1.83;;
12112;SDS011;6120;52.250;8.478;2023-07-13T10:13:54;2.00;;;1.80;;
12112;SDS011;6120;52.250;8.478;2023-07-13T10:16:28;2.63;;;1.70;;
12112;SDS011;6120;52.250;8.478;2023-07-13T10:19:02;2.90;;;1.80;;
12112;SDS011;6120;52.250;8.478;2023-07-13T10:21:49;2.70;;;1.90;;
12112;SDS011;6120;52.250;8.478;2023-07-13T10:27:03;2.22;;;1.85;;
12112;SDS011;6120;52.250;8.478;2023-07-13T10:29:46;2.10;;;1.90;;
12112;SDS011;6120;52.250;8.478;2023-07-13T10:32:17;2.13;;;1.88;;
12112;SDS011;6120;52.250;8.478;2023-07-13T10:34:46;2.75;;;1.70;;
12112;SDS011;6120;52.250;8.478;2023-07-13T10:37:19;2.60;;;2.00;;
12112;SDS011;6120;52.250;8.478;2023-07-13T10:39:49;2.13;;;1.92;;
12112;SDS011;6120;52.250;8.478;2023-07-13T10:42:19;3.55;;;2.00;;
12112;SDS011;6120;52.250;8.478;2023-07-13T10:44:54;3.80;;;2.35;;
12112;SDS011;6120;52.250;8.478;2023-07-13T10:47:21;1.90;;;1.70;;
12112;SDS011;6120;52.250;8.478;2023-07-13T10:49:50;2.40;;;1.90;;
12112;SDS011;6120;52.250;8.478;2023-07-13T10:55:29;2.67;;;2.00;;
12112;SDS011;6120;52.250;8.478;2023-07-13T10:58:00;2.90;;;2.00;;
12112;SDS011;6120;52.250;8.478;2023-07-13T11:00:31;2.15;;;1.70;;
12112;SDS011;6120;52.250;8.478;2023-07-13T11:02:59;2.15;;;1.92;;
12112;SDS011;6120;52.250;8.478;2023-07-13T11:05:31;2.67;;;1.83;;
12112;SDS011;6120;52.250;8.478;2023-07-13T11:10:56;2.78;;;2.00;;
12112;SDS011;6120;52.250;8.478;2023-07-13T11:13:36;2.63;;;2.15;;
12112;SDS011;6120;52.250;8.478;2023-07-13T11:16:32;3.10;;;2.10;;
12112;SDS011;6120;52.250;8.478;2023-07-13T11:21:34;2.78;;;1.80;;
12112;SDS011;6120;52.250;8.478;2023-07-13T11:24:02;1.98;;;1.70;;
12112;SDS011;6120;52.250;8.478;2023-07-13T11:26:44;6.07;;;2.00;;
12112;SDS011;6120;52.250;8.478;2023-07-13T11:31:54;3.58;;;2.30;;
12112;SDS011;6120;52.250;8.478;2023-07-13T11:37:10;3.00;;;2.30;;
12112;SDS011;6120;52.250;8.478;2023-07-13T11:39:42;2.30;;;1.77;;
12112;SDS011;6120;52.250;8.478;2023-07-13T11:42:13;2.92;;;2.10;;
12112;SDS011;6120;52.250;8.478;2023-07-13T11:44:46;2.13;;;1.80;;
12112;SDS011;6120;52.250;8.478;2023-07-13T11:47:34;3.17;;;2.00;;
12112;SDS011;6120;52.250;8.478;2023-07-13T11:50:01;2.30;;;2.10;;
12112;SDS011;6120;52.250;8.478;2023-07-13T11:52:35;3.03;;;1.77;;
12112;SDS011;6120;52.250;8.478;2023-07-13T11:58:01;2.30;;;2.10;;
12112;SDS011;6120;52.250;8.478;2023-07-13T12:00:30;2.33;;;2.13;;
12112;SDS011;6120;52.250;8.478;2023-07-13T12:03:00;2.22;;;2.00;;
12112;SDS011;6120;52.250;8.478;2023-07-13T12:05:29;2.58;;;1.92;;
12112;SDS011;6120;52.250;8.478;2023-07-13T12:07:57;3.05;;;1.98;;
12112;SDS011;6120;52.250;8.478;2023-07-13T12:10:25;2.10;;;1.90;;
12112;SDS011;6120;52.250;8.478;2023-07-13T12:12:56;2.33;;;2.13;;
12112;SDS011;6120;52.250;8.478;2023-07-13T12:15:26;2.20;;;2.00;;
12112;SDS011;6120;52.250;8.478;2023-07-13T12:17:56;3.53;;;2.00;;
12112;SDS011;6120;52.250;8.478;2023-07-13T12:20:25;2.13;;;1.92;;
12112;SDS011;6120;52.250;8.478;2023-07-13T12:22:54;2.42;;;2.08;;
12112;SDS011;6120;52.250;8.478;2023-07-13T12:25:22;3.25;;;2.22;;
12112;SDS011;6120;52.250;8.478;2023-07-13T12:27:50;2.40;;;2.20;;
12112;SDS011;6120;52.250;8.478;2023-07-13T12:30:25;2.10;;;1.90;;
12112;SDS011;6120;52.250;8.478;2023-07-13T12:33:15;4.45;;;2.47;;
12112;SDS011;6120;52.250;8.478;2023-07-13T12:35:47;2.13;;;1.92;;
12112;SDS011;6120;52.250;8.478;2023-07-13T12:38:15;2.30;;;2.00;;
12112;SDS011;6120;52.250;8.478;2023-07-13T12:43:12;2.35;;;1.90;;
12112;SDS011;6120;52.250;8.478;2023-07-13T12:45:54;2.70;;;2.00;;
12112;SDS011;6120;52.250;8.478;2023-07-13T12:48:22;2.38;;;2.00;;
12112;SDS011;6120;52.250;8.478;2023-07-13T12:51:08;2.20;;;1.98;;
12112;SDS011;6120;52.250;8.478;2023-07-13T12:53:42;2.30;;;1.98;;
12112;SDS011;6120;52.250;8.478;2023-07-13T12:56:23;2.45;;;1.90;;
12112;SDS011;6120;52.250;8.478;2023-07-13T12:58:57;2.83;;;2.10;;
12112;SDS011;6120;52.250;8.478;2023-07-13T13:01:28;2.45;;;1.77;;
12112;SDS011;6120;52.250;8.478;2023-07-13T13:03:55;2.08;;;1.85;;
12112;SDS011;6120;52.250;8.478;2023-07-13T13:06:24;2.03;;;1.83;;
12112;SDS011;6120;52.250;8.478;2023-07-13T13:08:53;2.05;;;1.77;;
12112;SDS011;6120;52.250;8.478;2023-07-13T13:11:28;3.42;;;2.10;;
12112;SDS011;6120;52.250;8.478;2023-07-13T13:13:56;2.17;;;1.90;;
12112;SDS011;6120;52.250;8.478;2023-07-13T13:16:24;1.80;;;1.70;;
12112;SDS011;6120;52.250;8.478;2023-07-13T13:18:59;2.00;;;1.80;;
12112;SDS011;6120;52.250;8.478;2023-07-13T13:21:32;2.33;;;2.13;;
12112;SDS011;6120;52.250;8.478;2023-07-13T13:23:59;1.90;;;1.80;;
12112;SDS011;6120;52.250;8.478;2023-07-13T13:26:26;1.98;;;1.50;;
12112;SDS011;6120;52.250;8.478;2023-07-13T13:28:53;2.50;;;1.90;;
12112;SDS011;6120;52.250;8.478;2023-07-13T13:31:20;2.75;;;2.00;;
12112;SDS011;6120;52.250;8.478;2023-07-13T13:33:46;2.30;;;2.10;;
12112;SDS011;6120;52.250;8.478;2023-07-13T13:36:21;2.40;;;2.10;;
12112;SDS011;6120;52.250;8.478;2023-07-13T13:38:49;2.40;;;2.20;;
12112;SDS011;6120;52.250;8.478;2023-07-13T13:41:16;2.70;;;2.30;;
12112;SDS011;6120;52.250;8.478;2023-07-13T13:43:43;2.22;;;2.00;;
12112;SDS011;6120;52.250;8.478;2023-07-13T13:46:14;2.58;;;2.38;;
12112;SDS011;6120;52.250;8.478;2023-07-13T13:48:43;2.40;;;2.20;;
12112;SDS011;6120;52.250;8.478;2023-07-13T13:51:15;2.55;;;2.35;;
12112;SDS011;6120;52.250;8.478;2023-07-13T13:53:44;2.50;;;2.30;;
12112;SDS011;6120;52.250;8.478;2023-07-13T13:56:15;2.60;;;2.40;;
12112;SDS011;6120;52.250;8.478;2023-07-13T13:58:42;2.22;;;2.08;;
12112;SDS011;6120;52.250;8.478;2023-07-13T14:01:27;3.83;;;2.60;;
12112;SDS011;6120;52.250;8.478;2023-07-13T14:03:54;2.47;;;2.28;;
12112;SDS011;6120;52.250;8.478;2023-07-13T14:06:21;2.60;;;2.40;;
12112;SDS011;6120;52.250;8.478;2023-07-13T14:08:47;2.72;;;2.30;;
12112;SDS011;6120;52.250;8.478;2023-07-13T14:11:15;2.20;;;2.00;;
12112;SDS011;6120;52.250;8.478;2023-07-13T14:13:44;2.15;;;2.00;;
12112;SDS011;6120;52.250;8.478;2023-07-13T14:16:15;2.30;;;2.10;;
12112;SDS011;6120;52.250;8.478;2023-07-13T14:18:47;2.28;;;2.08;;
12112;SDS011;6120;52.250;8.478;2023-07-13T14:21:17;2.60;;;2.40;;
12112;SDS011;6120;52.250;8.478;2023-07-13T14:23:45;2.45;;;2.25;;
12112;SDS011;6120;52.250;8.478;2023-07-13T14:26:13;2.40;;;2.20;;
12112;SDS011;6120;52.250;8.478;2023-07-13T14:28:42;2.35;;;2.15;;
12112;SDS011;6120;52.250;8.478;2023-07-13T14:31:11;2.33;;;2.13;;
12112;SDS011;6120;52.250;8.478;2023-07-13T14:33:38;2.03;;;1.92;;
12112;SDS011;6120;52.250;8.478;2023-07-13T14:36:13;3.05;;;2.30;;
12112;SDS011;6120;52.250;8.478;2023-07-13T14:38:45;2.40;;;2.20;;
12112;SDS011;6120;52.250;8.478;2023-07-13T14:41:12;2.78;;;2.50;;
12112;SDS011;6120;52.250;8.478;2023-07-13T14:43:38;2.97;;;2.65;;
12112;SDS011;6120;52.250;8.478;2023-07-13T14:46:07;3.10;;;2.80;;
12112;SDS011;6120;52.250;8.478;2023-07-13T14:48:44;3.05;;;2.72;;
12112;SDS011;6120;52.250;8.478;2023-07-13T14:51:11;2.70;;;2.50;;
12112;SDS011;6120;52.250;8.478;2023-07-13T14:53:38;3.05;;;2.70;;
12112;SDS011;6120;52.250;8.478;2023-07-13T14:56:11;3.22;;;2.63;;
12112;SDS011;6120;52.250;8.478;2023-07-13T14:58:38;2.88;;;2.63;;
12112;SDS011;6120;52.250;8.478;2023-07-13T15:01:16;2.50;;;2.30;;
12112;SDS011;6120;52.250;8.478;2023-07-13T15:03:44;2.35;;;2.15;;
12112;SDS011;6120;52.250;8.478;2023-07-13T15:06:12;2.65;;;2.45;;
12112;SDS011;6120;52.250;8.478;2023-07-13T15:08:40;2.50;;;2.30;;
12112;SDS011;6120;52.250;8.478;2023-07-13T15:11:09;2.85;;;2.53;;
12112;SDS011;6120;52.250;8.478;2023-07-13T15:13:39;2.38;;;2.17;;
12112;SDS011;6120;52.250;8.478;2023-07-13T15:16:13;2.57;;;2.37;;
12112;SDS011;6120;52.250;8.478;2023-07-13T15:18:43;2.63;;;2.42;;
12112;SDS011;6120;52.250;8.478;2023-07-13T15:21:11;2.38;;;2.17;;
12112;SDS011;6120;52.250;8.478;2023-07-13T15:23:42;2.35;;;2.15;;
12112;SDS011;6120;52.250;8.478;2023-07-13T15:26:13;2.42;;;2.22;;
12112;SDS011;6120;52.250;8.478;2023-07-13T15:28:41;2.40;;;2.20;;
12112;SDS011;6120;52.250;8.478;2023-07-13T15:31:19;2.40;;;2.20;;
12112;SDS011;6120;52.250;8.478;2023-07-13T15:33:49;3.08;;;2.40;;
12112;SDS011;6120;52.250;8.478;2023-07-13T15:36:17;2.40;;;2.20;;
12112;SDS011;6120;52.250;8.478;2023-07-13T15:38:45;2.50;;;2.30;;
12112;SDS011;6120;52.250;8.478;2023-07-13T15:41:16;2.47;;;2.28;;
12112;SDS011;6120;52.250;8.478;2023-07-13T15:43:50;2.50;;;2.30;;
12112;SDS011;6120;52.250;8.478;2023-07-13T15:46:19;2.72;;;2.53;;
12112;SDS011;6120;52.250;8.478;2023-07-13T15:48:51;2.60;;;2.40;;
12112;SDS011;6120;52.250;8.478;2023-07-13T15:51:27;2.83;;;2.63;;
12112;SDS011;6120;52.250;8.478;2023-07-13T15:53:55;2.80;;;2.60;;
12112;SDS011;6120;52.250;8.478;2023-07-13T15:56:25;3.10;;;2.80;;
12112;SDS011;6120;52.250;8.478;2023-07-13T15:58:53;2.55;;;2.35;;